Cleo, Mississippi
Current Conditions -  °F | °C
As of 4:55 PM on Saturday 25 Oct 2014 (Local Time) from KPIB Reporting Station
Clear Clear  
Wind Chill: 27°   Ceiling: Unl
Heat Index: 27°   Visibility: 10mi
Dew Point: 13°   Wind: 5mph
Humidity: 42%   Direction: 360°N
Pressure: 30.08"   Gusts: NA
Location:  31.6875°N, 89.1116°W
Report Text: KPIB 252155Z AUTO 36004KT 10SM CLR 27/13 A3008 RMK AO1
Loading
Personal Weather Stations






























Interactive Weather Map
Tropical Storm Tracking
New forecast layout! Learn more

10-Day Weather Forecast

Advertisements
Track Severe Weather on mobile